Time;durP1;ratioP1;P1;durP2;ratioP2;P2;SDS_P1;SDS_P2;PMS_P1;PMS_P2;Temp;Humidity;BMP_temperature;BMP_pressure;BME280_temperature;BME280_humidity;BME280_pressure;Samples;Min_cycle;Max_cycle;Signal;HPM_P1;HPM_P2
2022/09/07 00:00:36;;;;;;;11.48;4.13;;;;;;;;;;5091963;28;20083;-82
2022/09/07 00:03:04;;;;;;;7.00;3.92;;;;;;;;;;5106172;28;20045;-81
2022/09/07 00:05:32;;;;;;;13.48;4.97;;;;;;;;;;5094840;28;20036;-81
2022/09/07 00:07:59;;;;;;;12.32;4.80;;;;;;;;;;5094679;28;20100;-81
2022/09/07 00:10:27;;;;;;;15.93;5.35;;;;;;;;;;5092412;28;20029;-81
2022/09/07 00:12:54;;;;;;;9.90;4.75;;;;;;;;;;5092228;28;20046;-83
2022/09/07 00:15:22;;;;;;;17.23;5.30;;;;;;;;;;5088205;28;20039;-80
2022/09/07 00:17:49;;;;;;;15.23;4.90;;;;;;;;;;5092162;28;20037;-80
2022/09/07 00:20:17;;;;;;;11.88;5.35;;;;;;;;;;5087703;28;20033;-81
2022/09/07 00:22:45;;;;;;;8.02;4.50;;;;;;;;;;5089786;28;20037;-82
2022/09/07 00:25:12;;;;;;;9.18;4.45;;;;;;;;;;5091020;27;20065;-81
2022/09/07 00:27:40;;;;;;;12.07;4.22;;;;;;;;;;5086350;28;20484;-81
2022/09/07 00:30:08;;;;;;;10.27;4.45;;;;;;;;;;5090310;28;20033;-82
2022/09/07 00:32:35;;;;;;;9.73;4.47;;;;;;;;;;5090990;28;20047;-81
2022/09/07 00:35:02;;;;;;;10.95;4.28;;;;;;;;;;5099478;28;20032;-79
2022/09/07 00:37:29;;;;;;;10.85;5.07;;;;;;;;;;5087120;28;20052;-81
2022/09/07 00:39:56;;;;;;;13.00;4.45;;;;;;;;;;5089902;28;20041;-81
2022/09/07 00:42:23;;;;;;;10.13;4.43;;;;;;;;;;5097446;28;20033;-80
2022/09/07 00:45:00;;;;;;;13.68;5.50;;;;;;;;;;5092089;28;20948;-81
2022/09/07 00:47:30;;;;;;;8.48;4.28;;;;;;;;;;5090671;28;20029;-82
2022/09/07 00:50:04;;;;;;;13.15;4.70;;;;;;;;;;5089470;28;20035;-82
2022/09/07 00:52:32;;;;;;;18.70;5.15;;;;;;;;;;5095266;28;20405;-82
2022/09/07 00:55:02;;;;;;;15.82;5.53;;;;;;;;;;5093230;28;20100;-81
2022/09/07 00:57:30;;;;;;;7.90;3.97;;;;;;;;;;5092131;28;20039;-82
2022/09/07 00:59:58;;;;;;;14.80;4.40;;;;;;;;;;5094156;28;20068;-82
2022/09/07 01:02:25;;;;;;;18.52;4.80;;;;;;;;;;5089760;28;20036;-81
2022/09/07 01:05:07;;;;;;;13.68;5.15;;;;;;;;;;5089564;28;20064;-81
2022/09/07 01:07:36;;;;;;;12.10;5.25;;;;;;;;;;5090997;28;20048;-81
2022/09/07 01:10:03;;;;;;;6.70;3.60;;;;;;;;;;5089315;28;20047;-79
2022/09/07 01:12:30;;;;;;;6.90;3.50;;;;;;;;;;5081603;28;20061;-81
2022/09/07 01:14:57;;;;;;;8.70;3.75;;;;;;;;;;5086777;28;20041;-80
2022/09/07 01:17:41;;;;;;;6.53;3.08;;;;;;;;;;5085454;28;20041;-82
2022/09/07 01:20:11;;;;;;;11.63;4.03;;;;;;;;;;5090422;28;20156;-80
2022/09/07 01:22:57;;;;;;;9.65;4.25;;;;;;;;;;5090739;28;20039;-79
2022/09/07 01:25:27;;;;;;;15.10;4.20;;;;;;;;;;5081514;28;20053;-80
2022/09/07 01:27:57;;;;;;;11.20;4.07;;;;;;;;;;5083060;28;20097;-79
2022/09/07 01:30:25;;;;;;;21.92;4.65;;;;;;;;;;5074585;28;20053;-80
2022/09/07 01:33:04;;;;;;;13.68;3.85;;;;;;;;;;5084737;28;20026;-79
2022/09/07 01:35:50;;;;;;;9.52;3.55;;;;;;;;;;5077819;28;20046;-80
2022/09/07 01:38:23;;;;;;;11.32;3.90;;;;;;;;;;5077565;28;20065;-80
2022/09/07 01:40:57;;;;;;;8.05;3.30;;;;;;;;;;5085722;28;20105;-79
2022/09/07 01:43:24;;;;;;;;;;;;;;;;;;5090164;28;20036;-81
2022/09/07 01:45:53;;;;;;;9.60;3.42;;;;;;;;;;5073592;28;45720;-80
2022/09/07 01:48:21;;;;;;;8.27;3.10;;;;;;;;;;5078122;28;20808;-80
2022/09/07 01:51:11;;;;;;;6.82;3.38;;;;;;;;;;5072224;28;20040;-81
2022/09/07 01:53:46;;;;;;;11.45;3.15;;;;;;;;;;5071099;28;20030;-80
2022/09/07 01:56:16;;;;;;;7.13;3.50;;;;;;;;;;5078461;28;20132;-81
2022/09/07 01:58:43;;;;;;;7.47;3.45;;;;;;;;;;5085198;28;20057;-81
2022/09/07 02:01:14;;;;;;;10.02;3.55;;;;;;;;;;5068487;28;20054;-82
2022/09/07 02:03:44;;;;;;;15.70;4.55;;;;;;;;;;5074789;28;20052;-79
2022/09/07 02:06:18;;;;;;;9.27;4.00;;;;;;;;;;5069062;28;20049;-80
2022/09/07 02:08:45;;;;;;;8.88;4.10;;;;;;;;;;5078942;28;20054;-79
2022/09/07 02:11:16;;;;;;;16.25;4.75;;;;;;;;;;5075161;28;20904;-79
2022/09/07 02:13:47;;;;;;;8.50;4.70;;;;;;;;;;5069663;28;20056;-79
2022/09/07 02:16:18;;;;;;;19.92;5.25;;;;;;;;;;5084547;28;20049;-81
2022/09/07 02:18:52;;;;;;;15.55;5.50;;;;;;;;;;5075482;28;20052;-80
2022/09/07 02:21:22;;;;;;;9.57;4.90;;;;;;;;;;5082758;28;20105;-79
2022/09/07 02:24:00;;;;;;;13.00;5.30;;;;;;;;;;5076978;28;20051;-78
2022/09/07 02:26:28;;;;;;;10.95;5.05;;;;;;;;;;5072214;28;20049;-80
2022/09/07 02:28:56;;;;;;;10.70;5.03;;;;;;;;;;5072264;28;20041;-79
2022/09/07 02:31:23;;;;;;;13.57;4.88;;;;;;;;;;5075149;28;20047;-79
2022/09/07 02:33:50;;;;;;;13.27;5.50;;;;;;;;;;5082108;28;20044;-78
2022/09/07 02:36:20;;;;;;;15.88;4.90;;;;;;;;;;5084760;28;20045;-81
2022/09/07 02:38:47;;;;;;;17.33;4.88;;;;;;;;;;5079651;28;20060;-80
2022/09/07 02:41:35;;;;;;;18.27;5.68;;;;;;;;;;5080246;28;20055;-79
2022/09/07 02:44:04;;;;;;;15.48;4.95;;;;;;;;;;5077444;28;20061;-79
2022/09/07 02:46:50;;;;;;;9.40;4.45;;;;;;;;;;5065959;28;20044;-79
2022/09/07 02:49:41;;;;;;;10.52;4.82;;;;;;;;;;5079974;28;20053;-79
2022/09/07 02:52:27;;;;;;;12.73;4.38;;;;;;;;;;5085300;28;20109;-82
2022/09/07 02:55:01;;;;;;;16.63;5.00;;;;;;;;;;5085389;28;20033;-81
2022/09/07 02:57:37;;;;;;;13.80;4.15;;;;;;;;;;5079481;28;20076;-81
2022/09/07 03:00:10;;;;;;;11.60;4.63;;;;;;;;;;5075880;28;20046;-80
2022/09/07 03:02:55;;;;;;;12.07;4.72;;;;;;;;;;5069044;28;20588;-80
2022/09/07 03:05:25;;;;;;;10.38;4.63;;;;;;;;;;5076808;28;20056;-79
2022/09/07 03:08:00;;;;;;;12.55;4.45;;;;;;;;;;5089192;28;20105;-81
2022/09/07 03:10:28;;;;;;;15.93;4.32;;;;;;;;;;5087860;28;20049;-82
2022/09/07 03:12:55;;;;;;;14.48;4.55;;;;;;;;;;5078793;28;20131;-80
2022/09/07 03:15:24;;;;;;;16.00;4.90;;;;;;;;;;5075418;28;20024;-80
2022/09/07 03:17:51;;;;;;;14.85;4.00;;;;;;;;;;5079529;28;20053;-79
2022/09/07 03:20:19;;;;;;;14.57;4.43;;;;;;;;;;5075401;28;20045;-80
2022/09/07 03:22:47;;;;;;;10.98;4.03;;;;;;;;;;5091012;28;20041;-81
2022/09/07 03:25:15;;;;;;;18.25;4.78;;;;;;;;;;5068411;28;20040;-80
2022/09/07 03:27:42;;;;;;;18.85;5.18;;;;;;;;;;5069763;28;20490;-80
2022/09/07 03:30:09;;;;;;;16.60;5.70;;;;;;;;;;5067018;28;20053;-79
2022/09/07 03:32:37;;;;;;;12.75;4.40;;;;;;;;;;5068388;28;20053;-79
2022/09/07 03:35:06;;;;;;;19.45;4.97;;;;;;;;;;5066432;28;20049;-79
2022/09/07 03:37:35;;;;;;;8.63;3.70;;;;;;;;;;5075374;28;20053;-80
2022/09/07 03:40:03;;;;;;;11.13;3.70;;;;;;;;;;5077688;28;20053;-79
2022/09/07 03:42:31;;;;;;;7.07;3.40;;;;;;;;;;5077187;28;20040;-81
2022/09/07 03:44:58;;;;;;;10.40;3.28;;;;;;;;;;5081063;28;20041;-82
2022/09/07 03:47:26;;;;;;;14.23;4.30;;;;;;;;;;5080295;28;20053;-80
2022/09/07 03:49:53;;;;;;;12.50;4.13;;;;;;;;;;5081113;28;20057;-80
2022/09/07 03:52:20;;;;;;;6.72;3.88;;;;;;;;;;5082506;28;20107;-80
2022/09/07 03:54:47;;;;;;;18.27;4.15;;;;;;;;;;5067745;28;20052;-79
2022/09/07 03:57:14;;;;;;;10.13;3.97;;;;;;;;;;5078609;28;20073;-81
2022/09/07 03:59:41;;;;;;;11.52;4.47;;;;;;;;;;5075580;28;20041;-80
2022/09/07 04:02:09;;;;;;;19.15;4.50;;;;;;;;;;5079609;28;20103;-79
2022/09/07 04:04:36;;;;;;;11.48;3.83;;;;;;;;;;5081443;28;20092;-79
2022/09/07 04:07:03;;;;;;;9.25;3.92;;;;;;;;;;5082712;28;20053;-79
2022/09/07 04:09:30;;;;;;;10.60;3.97;;;;;;;;;;5079975;28;20938;-80
2022/09/07 04:11:58;;;;;;;22.90;4.95;;;;;;;;;;5081808;28;20164;-80
2022/09/07 04:14:25;;;;;;;12.23;3.80;;;;;;;;;;5083166;28;20101;-79
2022/09/07 04:16:52;;;;;;;15.68;3.60;;;;;;;;;;5078208;28;20144;-81
2022/09/07 04:19:19;;;;;;;9.65;4.00;;;;;;;;;;5080470;28;20052;-80
2022/09/07 04:21:47;;;;;;;6.70;4.00;;;;;;;;;;5078615;28;20037;-80
2022/09/07 04:24:15;;;;;;;25.38;4.72;;;;;;;;;;5065957;28;20160;-78
2022/09/07 04:26:42;;;;;;;19.17;5.22;;;;;;;;;;5074347;28;20060;-81
2022/09/07 04:29:10;;;;;;;13.13;4.55;;;;;;;;;;5082552;28;20049;-80
2022/09/07 04:31:38;;;;;;;23.55;5.90;;;;;;;;;;5072780;28;20521;-80
2022/09/07 04:34:06;;;;;;;13.77;5.10;;;;;;;;;;5069960;28;20048;-79
2022/09/07 04:36:33;;;;;;;34.30;6.75;;;;;;;;;;5081856;28;20034;-81
2022/09/07 04:39:02;;;;;;;14.95;5.63;;;;;;;;;;5080402;28;20041;-79
2022/09/07 04:41:30;;;;;;;15.82;5.82;;;;;;;;;;5071460;28;21076;-79
2022/09/07 04:43:59;;;;;;;30.50;6.60;;;;;;;;;;5075645;28;20052;-81
2022/09/07 04:46:28;;;;;;;21.02;5.60;;;;;;;;;;5076546;28;20043;-79
2022/09/07 04:48:57;;;;;;;14.30;6.13;;;;;;;;;;5087224;28;20132;-80
2022/09/07 04:51:26;;;;;;;9.00;4.82;;;;;;;;;;5087444;28;20034;-79
2022/09/07 04:53:54;;;;;;;12.77;5.68;;;;;;;;;;5083792;28;20037;-79
2022/09/07 04:56:21;;;;;;;13.00;5.32;;;;;;;;;;5080822;28;20045;-80
2022/09/07 04:58:49;;;;;;;8.40;5.15;;;;;;;;;;5082228;28;20081;-80
2022/09/07 05:01:17;;;;;;;7.85;4.80;;;;;;;;;;5086150;28;20045;-79
2022/09/07 05:03:45;;;;;;;12.43;5.25;;;;;;;;;;5103840;28;20037;-82
2022/09/07 05:06:13;;;;;;;12.18;5.32;;;;;;;;;;5081963;28;20045;-80
2022/09/07 05:08:42;;;;;;;9.02;4.75;;;;;;;;;;5080032;28;20099;-80
2022/09/07 05:11:09;;;;;;;9.48;4.85;;;;;;;;;;5088086;28;20053;-79
2022/09/07 05:13:36;;;;;;;7.53;5.00;;;;;;;;;;5081003;28;20092;-80
2022/09/07 05:16:18;;;;;;;16.98;5.63;;;;;;;;;;5086947;28;20045;-79
2022/09/07 05:18:49;;;;;;;13.18;5.57;;;;;;;;;;5084411;28;20084;-79
2022/09/07 05:21:18;;;;;;;11.52;5.65;;;;;;;;;;5081785;28;20053;-80
2022/09/07 05:23:48;;;;;;;10.80;5.68;;;;;;;;;;5089375;28;20132;-79
2022/09/07 05:26:15;;;;;;;22.40;7.38;;;;;;;;;;5086138;28;20049;-81
2022/09/07 05:28:43;;;;;;;26.40;7.80;;;;;;;;;;5088687;28;20045;-81
2022/09/07 05:31:11;;;;;;;21.52;6.78;;;;;;;;;;5085263;28;20045;-81
2022/09/07 05:33:56;;;;;;;25.33;7.43;;;;;;;;;;5088985;28;20057;-79
2022/09/07 05:36:43;;;;;;;26.48;7.25;;;;;;;;;;5077789;28;20048;-79
2022/09/07 05:39:11;;;;;;;15.05;6.18;;;;;;;;;;5078281;28;20477;-80
2022/09/07 05:41:39;;;;;;;20.33;6.82;;;;;;;;;;5087268;28;20041;-83
2022/09/07 05:44:06;;;;;;;28.88;8.25;;;;;;;;;;5093818;28;20037;-83
2022/09/07 05:46:53;;;;;;;17.98;6.90;;;;;;;;;;5084648;28;20037;-83
2022/09/07 05:49:20;;;;;;;11.57;6.07;;;;;;;;;;5092072;28;20043;-82
2022/09/07 05:51:47;;;;;;;14.25;6.05;;;;;;;;;;5089493;28;20104;-82
2022/09/07 05:54:15;;;;;;;15.05;5.82;;;;;;;;;;5085612;28;20048;-84
2022/09/07 05:56:42;;;;;;;10.50;6.20;;;;;;;;;;5083868;28;20046;-81
2022/09/07 05:59:09;;;;;;;18.17;6.85;;;;;;;;;;5080616;28;20897;-82
2022/09/07 06:01:36;;;;;;;12.13;6.40;;;;;;;;;;5072133;28;20056;-81
2022/09/07 06:04:04;;;;;;;14.52;6.47;;;;;;;;;;5069649;28;20159;-81
2022/09/07 06:06:31;;;;;;;13.00;6.13;;;;;;;;;;5082049;28;20064;-82
2022/09/07 06:08:58;;;;;;;19.13;6.60;;;;;;;;;;5083556;28;20048;-83
2022/09/07 06:11:26;;;;;;;11.50;6.35;;;;;;;;;;5066471;28;20059;-82
2022/09/07 06:13:53;;;;;;;18.02;7.15;;;;;;;;;;5076876;28;20080;-83
2022/09/07 06:16:21;;;;;;;19.05;7.45;;;;;;;;;;5079547;28;20045;-82
2022/09/07 06:18:49;;;;;;;15.73;7.38;;;;;;;;;;5074495;28;20069;-82
2022/09/07 06:21:18;;;;;;;22.98;8.40;;;;;;;;;;5082054;28;20042;-81
2022/09/07 06:23:45;;;;;;;14.73;7.35;;;;;;;;;;5075961;28;20040;-83
2022/09/07 06:26:14;;;;;;;20.30;8.23;;;;;;;;;;5078770;28;20109;-82
2022/09/07 06:28:43;;;;;;;22.23;8.30;;;;;;;;;;5080566;28;20041;-81
2022/09/07 06:31:14;;;;;;;;;;;;;;;;;;5084749;28;20052;-83
2022/09/07 06:33:43;;;;;;;14.30;8.13;;;;;;;;;;5083580;28;44549;-83
2022/09/07 06:36:12;;;;;;;18.80;8.05;;;;;;;;;;5085255;28;20045;-81
2022/09/07 06:38:39;;;;;;;17.60;9.15;;;;;;;;;;5100124;28;20129;-82
2022/09/07 06:41:12;;;;;;;28.13;10.38;;;;;;;;;;5088245;28;20047;-81
2022/09/07 06:43:59;;;;;;;17.83;10.75;;;;;;;;;;5083787;28;20044;-82
2022/09/07 06:46:26;;;;;;;21.52;10.30;;;;;;;;;;5082685;28;20046;-80
2022/09/07 06:49:13;;;;;;;22.33;11.15;;;;;;;;;;5080857;28;20052;-80
2022/09/07 06:51:40;;;;;;;24.40;11.57;;;;;;;;;;5078057;28;20037;-80
2022/09/07 06:54:09;;;;;;;29.05;11.32;;;;;;;;;;5073275;28;20097;-82
2022/09/07 06:56:56;;;;;;;28.70;12.27;;;;;;;;;;5077895;28;20083;-80
2022/09/07 06:59:23;;;;;;;22.83;11.63;;;;;;;;;;5079973;28;20053;-81
2022/09/07 07:01:50;;;;;;;28.63;12.88;;;;;;;;;;5079011;28;20096;-81
2022/09/07 07:04:18;;;;;;;22.70;12.63;;;;;;;;;;5077337;28;20152;-80
2022/09/07 07:06:45;;;;;;;19.95;12.15;;;;;;;;;;5070750;28;20945;-81
2022/09/07 07:09:12;;;;;;;22.25;12.02;;;;;;;;;;5070945;28;20042;-80
2022/09/07 07:11:42;;;;;;;23.30;12.77;;;;;;;;;;5074249;28;20049;-79
2022/09/07 07:14:13;;;;;;;19.83;11.85;;;;;;;;;;5067836;28;20083;-80
2022/09/07 07:16:40;;;;;;;28.25;13.70;;;;;;;;;;5065193;28;20049;-80
2022/09/07 07:19:08;;;;;;;18.20;10.65;;;;;;;;;;5059402;28;20100;-80
2022/09/07 07:21:35;;;;;;;16.83;11.68;;;;;;;;;;5069357;28;20084;-79
2022/09/07 07:24:23;;;;;;;23.63;13.05;;;;;;;;;;5069813;28;20088;-80
2022/09/07 07:26:50;;;;;;;19.13;11.63;;;;;;;;;;5071994;28;20053;-79
2022/09/07 07:29:17;;;;;;;18.95;11.50;;;;;;;;;;5081716;28;20052;-80
2022/09/07 07:31:45;;;;;;;26.00;13.82;;;;;;;;;;5079987;28;20851;-80
2022/09/07 07:34:14;;;;;;;19.50;11.70;;;;;;;;;;5079680;28;20099;-79
2022/09/07 07:36:41;;;;;;;21.60;12.35;;;;;;;;;;5080260;28;20105;-79
2022/09/07 07:39:09;;;;;;;17.17;11.55;;;;;;;;;;5077565;28;20053;-79
2022/09/07 07:41:56;;;;;;;18.52;11.93;;;;;;;;;;5082313;28;20037;-78
2022/09/07 07:44:29;;;;;;;22.58;12.98;;;;;;;;;;5087309;28;20057;-81
2022/09/07 07:46:56;;;;;;;16.38;11.93;;;;;;;;;;5083660;28;20072;-80
2022/09/07 07:49:24;;;;;;;16.45;11.35;;;;;;;;;;5084174;28;20071;-80
2022/09/07 07:51:53;;;;;;;15.02;10.00;;;;;;;;;;5084753;28;20045;-79
2022/09/07 07:54:40;;;;;;;16.38;11.18;;;;;;;;;;5086726;28;20057;-81
2022/09/07 07:57:07;;;;;;;20.48;12.27;;;;;;;;;;5088612;28;20045;-77
2022/09/07 07:59:35;;;;;;;15.13;10.80;;;;;;;;;;5085666;28;20136;-78
2022/09/07 08:02:03;;;;;;;17.20;10.57;;;;;;;;;;5083760;28;20068;-79
2022/09/07 08:04:32;;;;;;;15.13;10.45;;;;;;;;;;5086943;28;20149;-79
2022/09/07 08:06:59;;;;;;;14.35;10.27;;;;;;;;;;5084098;28;20025;-79
2022/09/07 08:09:35;;;;;;;18.83;12.13;;;;;;;;;;5078831;28;20041;-80
2022/09/07 08:12:02;;;;;;;18.02;12.80;;;;;;;;;;5075207;28;20063;-79
2022/09/07 08:14:29;;;;;;;20.83;13.30;;;;;;;;;;5085072;28;20056;-79
2022/09/07 08:16:57;;;;;;;19.75;13.77;;;;;;;;;;5087975;28;20040;-78
2022/09/07 08:19:24;;;;;;;19.65;14.10;;;;;;;;;;5092546;28;20045;-80
2022/09/07 08:21:51;;;;;;;24.15;13.90;;;;;;;;;;5093651;28;20037;-78
2022/09/07 08:24:19;;;;;;;23.88;16.02;;;;;;;;;;5099284;28;20030;-79
2022/09/07 08:26:47;;;;;;;26.20;17.20;;;;;;;;;;5088288;28;20178;-78
2022/09/07 08:29:14;;;;;;;25.38;16.67;;;;;;;;;;5095456;28;20067;-78
2022/09/07 08:31:43;;;;;;;21.23;14.85;;;;;;;;;;5094136;28;20025;-79
2022/09/07 08:34:10;;;;;;;25.48;16.67;;;;;;;;;;5096074;27;20719;-79
2022/09/07 08:36:37;;;;;;;23.40;15.52;;;;;;;;;;5091934;28;20066;-79
2022/09/07 08:39:04;;;;;;;20.17;14.70;;;;;;;;;;5090066;28;20075;-77
2022/09/07 08:41:46;;;;;;;23.83;15.50;;;;;;;;;;5099932;27;20046;-77
2022/09/07 08:44:14;;;;;;;22.70;14.65;;;;;;;;;;5100102;28;20029;-78
2022/09/07 08:46:54;;;;;;;24.85;16.73;;;;;;;;;;5091473;28;20052;-78
2022/09/07 08:49:30;;;;;;;22.58;14.93;;;;;;;;;;5092614;28;20045;-79
2022/09/07 08:52:03;;;;;;;24.20;16.67;;;;;;;;;;5088403;28;20037;-76
2022/09/07 08:54:31;;;;;;;23.65;16.17;;;;;;;;;;5091248;28;20068;-77
2022/09/07 08:57:01;;;;;;;22.02;16.95;;;;;;;;;;5089356;28;20044;-79
2022/09/07 08:59:51;;;;;;;25.65;16.48;;;;;;;;;;5095079;28;20048;-77
2022/09/07 09:02:18;;;;;;;19.55;15.38;;;;;;;;;;5090412;28;20041;-77
2022/09/07 09:04:55;;;;;;;20.27;14.07;;;;;;;;;;5095686;28;20021;-76
2022/09/07 09:07:54;;;;;;;23.70;14.50;;;;;;;;;;5086621;28;21393;-77
2022/09/07 09:10:30;;;;;;;22.83;16.67;;;;;;;;;;5091159;28;20045;-78
2022/09/07 09:13:01;;;;;;;19.95;12.95;;;;;;;;;;5089784;28;20037;-77
2022/09/07 09:15:51;;;;;;;22.33;13.48;;;;;;;;;;5091174;28;20060;-77
2022/09/07 09:18:21;;;;;;;20.63;15.68;;;;;;;;;;5090601;28;20043;-78
2022/09/07 09:20:54;;;;;;;19.92;16.08;;;;;;;;;;5093046;28;20052;-78
2022/09/07 09:23:21;;;;;;;;;;;;;;;;;;5090177;28;20121;-78
2022/09/07 09:25:53;;;;;;;16.08;11.93;;;;;;;;;;5088310;28;45157;-77
2022/09/07 09:28:21;;;;;;;17.70;12.87;;;;;;;;;;5091773;28;20049;-77
2022/09/07 09:30:48;;;;;;;19.92;14.00;;;;;;;;;;5084692;28;20068;-77
2022/09/07 09:33:21;;;;;;;18.70;12.65;;;;;;;;;;5095461;28;20064;-77
2022/09/07 09:35:49;;;;;;;21.83;14.27;;;;;;;;;;5093638;28;20067;-76
2022/09/07 09:38:28;;;;;;;16.42;12.20;;;;;;;;;;5090002;28;20037;-76
2022/09/07 09:40:57;;;;;;;17.35;12.93;;;;;;;;;;5090735;28;20040;-77
2022/09/07 09:43:27;;;;;;;17.45;11.55;;;;;;;;;;5083519;28;20092;-78
2022/09/07 09:45:55;;;;;;;16.63;12.40;;;;;;;;;;5089114;28;20057;-80
2022/09/07 09:48:40;;;;;;;13.05;10.52;;;;;;;;;;5086307;28;20049;-77
2022/09/07 09:51:08;;;;;;;14.15;12.00;;;;;;;;;;5087368;28;20041;-76
2022/09/07 09:53:57;;;;;;;14.10;11.15;;;;;;;;;;5091119;28;20032;-76
2022/09/07 09:56:37;;;;;;;14.18;10.30;;;;;;;;;;5092743;28;20026;-77
2022/09/07 09:59:12;;;;;;;14.38;10.82;;;;;;;;;;5086426;28;20095;-76
2022/09/07 10:02:16;;;;;;;13.35;8.63;;;;;;;;;;5083011;28;20108;-77
2022/09/07 10:05:19;;;;;;;11.80;8.55;;;;;;;;;;5086686;28;20048;-77
2022/09/07 10:07:51;;;;;;;15.90;8.65;;;;;;;;;;5083800;28;20054;-77
2022/09/07 10:10:18;;;;;;;12.32;8.50;;;;;;;;;;5083479;28;20076;-77
2022/09/07 10:12:46;;;;;;;10.52;8.23;;;;;;;;;;5081830;28;20041;-75
2022/09/07 10:15:25;;;;;;;16.67;8.45;;;;;;;;;;5085598;28;20049;-76
2022/09/07 10:17:52;;;;;;;11.27;9.13;;;;;;;;;;5082396;28;20053;-75
2022/09/07 10:20:30;;;;;;;11.63;8.27;;;;;;;;;;5078011;28;20042;-75
2022/09/07 10:22:58;;;;;;;12.18;8.70;;;;;;;;;;5084987;28;20059;-76
2022/09/07 10:25:26;;;;;;;11.23;7.88;;;;;;;;;;5085675;28;20029;-76
2022/09/07 10:28:15;;;;;;;13.27;8.35;;;;;;;;;;5082335;28;20041;-75
2022/09/07 10:30:58;;;;;;;10.98;7.72;;;;;;;;;;5080497;28;20052;-77
2022/09/07 10:33:28;;;;;;;13.23;6.50;;;;;;;;;;5079713;28;20047;-75
2022/09/07 10:36:01;;;;;;;11.23;6.85;;;;;;;;;;5077153;28;20280;-76
2022/09/07 10:38:29;;;;;;;8.02;5.43;;;;;;;;;;5078107;28;20053;-75
2022/09/07 10:41:00;;;;;;;11.07;5.55;;;;;;;;;;5082196;28;20133;-77
2022/09/07 10:43:41;;;;;;;9.00;5.25;;;;;;;;;;5077503;28;20037;-76
2022/09/07 10:46:20;;;;;;;7.53;5.30;;;;;;;;;;5081250;28;20059;-74
2022/09/07 10:49:18;;;;;;;8.85;5.10;;;;;;;;;;5078230;28;20049;-75
2022/09/07 10:51:48;;;;;;;9.60;4.05;;;;;;;;;;5072362;28;20053;-75
2022/09/07 10:54:20;;;;;;;11.25;4.70;;;;;;;;;;5072802;28;20131;-75
2022/09/07 10:57:03;;;;;;;8.95;4.40;;;;;;;;;;5071852;28;20048;-75
2022/09/07 10:59:31;;;;;;;6.28;3.50;;;;;;;;;;5072949;28;20100;-74
2022/09/07 11:02:27;;;;;;;8.68;2.95;;;;;;;;;;5073453;28;20107;-74
2022/09/07 11:05:00;;;;;;;6.80;3.10;;;;;;;;;;5071290;28;20136;-75
2022/09/07 11:07:27;;;;;;;;;;;;;;;;;;5069839;28;20134;-74
2022/09/07 11:09:59;;;;;;;6.72;3.15;;;;;;;;;;5070490;28;43254;-74
2022/09/07 11:12:37;;;;;;;7.40;3.17;;;;;;;;;;5068874;28;20053;-74
2022/09/07 11:15:04;;;;;;;13.52;3.20;;;;;;;;;;5068467;28;20726;-76
2022/09/07 11:17:43;;;;;;;5.50;2.83;;;;;;;;;;5070960;28;20099;-75
2022/09/07 11:20:23;;;;;;;8.10;3.20;;;;;;;;;;5069384;28;20104;-75
2022/09/07 11:23:13;;;;;;;7.10;3.28;;;;;;;;;;5076588;28;20075;-74
2022/09/07 11:25:42;;;;;;;9.50;3.17;;;;;;;;;;5072300;28;20056;-74
2022/09/07 11:28:15;;;;;;;9.37;3.53;;;;;;;;;;5074480;28;20088;-74
2022/09/07 11:30:50;;;;;;;8.73;2.85;;;;;;;;;;5071053;28;20037;-75
2022/09/07 11:33:24;;;;;;;8.25;2.97;;;;;;;;;;5074064;28;20049;-74
2022/09/07 11:35:54;;;;;;;7.53;2.90;;;;;;;;;;5078430;28;20075;-73
2022/09/07 11:38:35;;;;;;;7.65;3.78;;;;;;;;;;5077373;28;20048;-75
2022/09/07 11:41:21;;;;;;;15.15;3.25;;;;;;;;;;5077031;28;20065;-73
2022/09/07 11:44:03;;;;;;;6.38;2.20;;;;;;;;;;5079195;28;20075;-74
2022/09/07 11:46:33;;;;;;;5.32;2.40;;;;;;;;;;5075998;28;20045;-74
2022/09/07 11:49:01;;;;;;;10.63;2.53;;;;;;;;;;5072754;28;20866;-73
2022/09/07 11:51:42;;;;;;;10.93;3.00;;;;;;;;;;5076468;28;20045;-73
2022/09/07 11:54:26;;;;;;;6.30;2.60;;;;;;;;;;5079487;28;20049;-74
2022/09/07 11:56:56;;;;;;;11.68;2.50;;;;;;;;;;5082100;28;20118;-75
2022/09/07 11:59:30;;;;;;;8.23;2.47;;;;;;;;;;5078285;28;20060;-75
2022/09/07 12:02:21;;;;;;;6.90;2.50;;;;;;;;;;5076296;28;20301;-74
2022/09/07 12:05:31;;;;;;;8.05;2.35;;;;;;;;;;5078448;28;20041;-74
2022/09/07 12:08:12;;;;;;;8.68;2.60;;;;;;;;;;5075995;28;20103;-76
2022/09/07 12:10:45;;;;;;;10.23;2.80;;;;;;;;;;5080296;28;20041;-73
2022/09/07 12:13:24;;;;;;;7.03;2.53;;;;;;;;;;5077814;28;21158;-74
2022/09/07 12:16:17;;;;;;;8.70;2.63;;;;;;;;;;5081732;28;20152;-75
2022/09/07 12:19:13;;;;;;;7.60;2.40;;;;;;;;;;5084169;28;20048;-74
2022/09/07 12:21:42;;;;;;;7.78;2.80;;;;;;;;;;5062881;28;20045;-75
2022/09/07 12:24:28;;;;;;;11.02;2.67;;;;;;;;;;5079259;28;20049;-74
2022/09/07 12:26:56;;;;;;;6.30;2.60;;;;;;;;;;5080669;28;20041;-74
2022/09/07 12:29:25;;;;;;;7.22;2.60;;;;;;;;;;5076394;28;20079;-74
2022/09/07 12:31:56;;;;;;;7.57;2.67;;;;;;;;;;5090653;28;20053;-73
2022/09/07 12:34:37;;;;;;;9.20;2.65;;;;;;;;;;5072461;28;20072;-72
2022/09/07 12:37:23;;;;;;;7.88;2.70;;;;;;;;;;5079575;28;20044;-73
2022/09/07 12:39:50;;;;;;;10.43;2.90;;;;;;;;;;5080397;28;20045;-73
2022/09/07 12:42:22;;;;;;;7.75;2.30;;;;;;;;;;5080713;28;20038;-73
2022/09/07 12:45:37;;;;;;;6.38;2.10;;;;;;;;;;5079070;28;20068;-74
2022/09/07 12:48:05;;;;;;;6.55;2.53;;;;;;;;;;5045580;28;20048;-76
2022/09/07 12:50:51;;;;;;;6.68;2.30;;;;;;;;;;5076587;28;20049;-77
2022/09/07 12:53:30;;;;;;;9.27;2.10;;;;;;;;;;5065528;28;20042;-72
2022/09/07 12:56:16;;;;;;;6.95;2.20;;;;;;;;;;5076466;28;20037;-76
2022/09/07 12:58:50;;;;;;;8.95;2.47;;;;;;;;;;5076494;28;20051;-73
2022/09/07 13:01:26;;;;;;;5.55;1.98;;;;;;;;;;5072041;28;20886;-73
2022/09/07 13:04:08;;;;;;;7.47;2.22;;;;;;;;;;5080849;28;20056;-73
2022/09/07 13:06:35;;;;;;;6.90;1.65;;;;;;;;;;5075711;28;20057;-73
2022/09/07 13:09:36;;;;;;;5.15;1.88;;;;;;;;;;5072895;28;20103;-72
2022/09/07 13:12:22;;;;;;;7.55;1.90;;;;;;;;;;5076051;28;20135;-72
2022/09/07 13:15:28;;;;;;;11.20;2.05;;;;;;;;;;5074832;28;20045;-74
2022/09/07 13:17:56;;;;;;;8.40;2.05;;;;;;;;;;5080256;28;20059;-73
2022/09/07 13:20:28;;;;;;;6.30;2.13;;;;;;;;;;5077528;28;20037;-73
2022/09/07 13:22:59;;;;;;;6.88;1.88;;;;;;;;;;5071657;28;20854;-74
2022/09/07 13:25:29;;;;;;;5.47;1.65;;;;;;;;;;5080339;28;20061;-74
2022/09/07 13:28:01;;;;;;;6.75;1.80;;;;;;;;;;5076983;28;20068;-75
2022/09/07 13:30:47;;;;;;;4.18;1.60;;;;;;;;;;5074878;28;20068;-73
2022/09/07 13:33:23;;;;;;;4.47;1.52;;;;;;;;;;5076389;28;20049;-72
2022/09/07 13:35:52;;;;;;;6.07;1.88;;;;;;;;;;5077863;28;20991;-71
2022/09/07 13:38:19;;;;;;;7.38;1.63;;;;;;;;;;5068449;28;20056;-74
2022/09/07 13:40:47;;;;;;;4.82;1.30;;;;;;;;;;5076000;28;20055;-73
2022/09/07 13:43:20;;;;;;;3.80;1.52;;;;;;;;;;5077382;28;20045;-72
2022/09/07 13:45:53;;;;;;;5.40;1.30;;;;;;;;;;5076618;28;20068;-73
2022/09/07 13:48:36;;;;;;;3.45;1.45;;;;;;;;;;5069981;28;20080;-72
2022/09/07 13:51:12;;;;;;;4.20;1.33;;;;;;;;;;5074737;28;20057;-72
2022/09/07 13:53:49;;;;;;;4.43;1.30;;;;;;;;;;5077162;28;20180;-72
2022/09/07 13:56:28;;;;;;;5.55;1.20;;;;;;;;;;5074787;28;20041;-72
2022/09/07 13:59:16;;;;;;;4.15;1.45;;;;;;;;;;5073706;28;20055;-73
2022/09/07 14:01:45;;;;;;;4.47;1.45;;;;;;;;;;5074326;28;20052;-72
2022/09/07 14:04:23;;;;;;;3.97;1.30;;;;;;;;;;5071271;28;20045;-73
2022/09/07 14:06:50;;;;;;;3.72;1.08;;;;;;;;;;5077662;28;20055;-73
2022/09/07 14:09:20;;;;;;;3.13;1.10;;;;;;;;;;5073152;28;20226;-72
2022/09/07 14:11:51;;;;;;;5.05;1.23;;;;;;;;;;5073616;28;20105;-73
2022/09/07 14:14:22;;;;;;;4.30;1.20;;;;;;;;;;5087613;28;20052;-75
2022/09/07 14:17:07;;;;;;;4.05;1.40;;;;;;;;;;5069677;28;20049;-74
2022/09/07 14:19:38;;;;;;;4.05;1.40;;;;;;;;;;5067685;28;20104;-74
2022/09/07 14:22:14;;;;;;;8.82;1.45;;;;;;;;;;5067726;28;20059;-74
2022/09/07 14:24:46;;;;;;;4.30;1.70;;;;;;;;;;5065543;28;20063;-75
2022/09/07 14:27:19;;;;;;;3.60;1.17;;;;;;;;;;5070397;28;20849;-75
2022/09/07 14:29:47;;;;;;;10.13;1.40;;;;;;;;;;5067249;28;20891;-74
2022/09/07 14:32:16;;;;;;;5.47;1.20;;;;;;;;;;5064459;28;20072;-76
2022/09/07 14:34:45;;;;;;;4.45;1.15;;;;;;;;;;5065532;28;20060;-75
2022/09/07 14:37:14;;;;;;;4.53;1.38;;;;;;;;;;5067390;28;20104;-75
2022/09/07 14:39:43;;;;;;;6.00;1.38;;;;;;;;;;5060465;28;20111;-75
2022/09/07 14:42:11;;;;;;;5.88;1.40;;;;;;;;;;5061326;28;20057;-74
2022/09/07 14:44:41;;;;;;;4.22;1.40;;;;;;;;;;5065799;28;20045;-74
2022/09/07 14:47:29;;;;;;;5.90;1.40;;;;;;;;;;5069963;28;20261;-74
2022/09/07 14:49:57;;;;;;;6.15;1.50;;;;;;;;;;5066834;28;20049;-75
2022/09/07 14:52:35;;;;;;;5.78;1.35;;;;;;;;;;5067852;28;20052;-76
2022/09/07 14:55:21;;;;;;;3.88;1.40;;;;;;;;;;5066717;28;20058;-74
2022/09/07 14:57:49;;;;;;;6.47;1.33;;;;;;;;;;5064878;28;21019;-74
2022/09/07 15:00:29;;;;;;;6.32;1.70;;;;;;;;;;5063840;28;20200;-75
2022/09/07 15:02:57;;;;;;;7.55;1.27;;;;;;;;;;5067210;28;20052;-74
2022/09/07 15:05:28;;;;;;;3.85;1.38;;;;;;;;;;5066889;28;20252;-74